KFPY/FPY METAR and TAF weather

Enter ICAO airport designator
Station Type Date Time Source
KFPY METAR 2022/12/04 05:55 UTC NOAA

KFPY 040555Z AUTO 00000KT 4SM BR CLR 14/14 A3025 RMK AO2 T01410135 10197 20139 TSNO


Station Type Date Time Source
KFPY Decoded METAR 2022/12/04 05:55 UTC NOAA

Station name not available
Dec 04, 2022 - 12:55 AM EST / 2022.12.04 0555 UTC
Wind: Calm:0
Visibility: 4 mile(s):0
Sky conditions: clear
Weather: mist
Temperature: 57.4 F (14.1 C)
Dew Point: 56.3 F (13.5 C)
Relative Humidity: 96%
Pressure (altimeter): 30.25 in. Hg (1024 hPa)
ob: KFPY 040555Z AUTO 00000KT 4SM BR CLR 14/14 A3025 RMK AO2 T01410135 10197 20139 TSNO
cycle: 6

Station Type Date Time Source
KFPY TAF UTC NOAA

Error!

Example: see airport list